KADG/ADG METAR and TAF weather

Enter ICAO airport designator
Station Type Date Time Source
KADG METAR 2018/01/19 16:53 UTC NOAA

KADG 191653Z AUTO 23010KT 10SM CLR M01/M07 A2995 RMK AO2 SLP156 T10111072 TSNO


Station Type Date Time Source
KADG Decoded METAR 2018/01/19 16:53 UTC NOAA

ADRIAN LENAWEE COUNTY AIRPORT, MI, United States (KADG) 41-52N 84-05W 241M
Jan 19, 2018 - 11:53 AM EST / 2018.01.19 1653 UTC
Wind: from the SW (230 degrees) at 12 MPH (10 KT):0
Visibility: 10 mile(s):0
Sky conditions: clear
Temperature: 30.0 F (-1.1 C)
Windchill: 19 F (-7 C):1
Dew Point: 19.0 F (-7.2 C)
Relative Humidity: 63%
Pressure (altimeter): 29.95 in. Hg (1014 hPa)
ob: KADG 191653Z AUTO 23010KT 10SM CLR M01/M07 A2995 RMK AO2 SLP156 T10111072 TSNO
cycle: 17

Station Type Date Time Source
KADG TAF UTC NOAA

Error!


Example: see airport list